sensor_id;sensor_type;location;lat;lon;timestamp;temperature;humidity
45233;DHT22;30969;51.052;17.056;2023-04-03T00:03:01;4.30;63.90
45233;DHT22;30969;51.052;17.056;2023-04-03T00:08:04;4.20;63.70
45233;DHT22;30969;51.052;17.056;2023-04-03T00:13:11;4.10;64.00
45233;DHT22;30969;51.052;17.056;2023-04-03T00:18:15;4.00;64.20
45233;DHT22;30969;51.052;17.056;2023-04-03T00:23:18;4.00;64.70
45233;DHT22;30969;51.052;17.056;2023-04-03T00:28:23;3.90;64.90
45233;DHT22;30969;51.052;17.056;2023-04-03T00:33:27;3.90;65.00
45233;DHT22;30969;51.052;17.056;2023-04-03T00:38:31;3.90;65.30
45233;DHT22;30969;51.052;17.056;2023-04-03T00:43:36;3.90;65.30
45233;DHT22;30969;51.052;17.056;2023-04-03T00:48:42;3.90;65.30
45233;DHT22;30969;51.052;17.056;2023-04-03T00:53:47;3.90;65.20
45233;DHT22;30969;51.052;17.056;2023-04-03T00:58:55;3.80;65.50
45233;DHT22;30969;51.052;17.056;2023-04-03T01:04:01;3.70;65.90
45233;DHT22;30969;51.052;17.056;2023-04-03T01:14:34;3.60;66.50
45233;DHT22;30969;51.052;17.056;2023-04-03T01:19:41;3.50;66.70
45233;DHT22;30969;51.052;17.056;2023-04-03T01:24:48;3.50;66.80
45233;DHT22;30969;51.052;17.056;2023-04-03T01:35:28;3.50;67.30
45233;DHT22;30969;51.052;17.056;2023-04-03T01:40:32;3.50;67.30
45233;DHT22;30969;51.052;17.056;2023-04-03T01:45:36;3.40;67.70
45233;DHT22;30969;51.052;17.056;2023-04-03T01:50:41;3.30;68.20
45233;DHT22;30969;51.052;17.056;2023-04-03T01:55:45;3.30;68.70
45233;DHT22;30969;51.052;17.056;2023-04-03T02:00:49;3.30;68.80
45233;DHT22;30969;51.052;17.056;2023-04-03T02:05:54;3.40;68.60
45233;DHT22;30969;51.052;17.056;2023-04-03T02:10:57;3.40;68.40
45233;DHT22;30969;51.052;17.056;2023-04-03T02:16:06;3.50;68.30
45233;DHT22;30969;51.052;17.056;2023-04-03T02:21:11;3.50;68.00
45233;DHT22;30969;51.052;17.056;2023-04-03T02:26:16;3.40;68.30
45233;DHT22;30969;51.052;17.056;2023-04-03T02:31:19;3.30;68.60
45233;DHT22;30969;51.052;17.056;2023-04-03T02:36:25;3.20;68.90
45233;DHT22;30969;51.052;17.056;2023-04-03T02:47:13;3.10;69.40
45233;DHT22;30969;51.052;17.056;2023-04-03T02:57:50;3.00;70.10
45233;DHT22;30969;51.052;17.056;2023-04-03T03:02:54;2.90;70.50
45233;DHT22;30969;51.052;17.056;2023-04-03T03:07:57;2.90;71.80
45233;DHT22;30969;51.052;17.056;2023-04-03T03:13:02;2.90;70.80
45233;DHT22;30969;51.052;17.056;2023-04-03T03:18:06;2.90;70.80
45233;DHT22;30969;51.052;17.056;2023-04-03T03:23:09;2.80;71.00
45233;DHT22;30969;51.052;17.056;2023-04-03T03:28:14;2.80;71.40
45233;DHT22;30969;51.052;17.056;2023-04-03T03:33:18;2.70;72.00
45233;DHT22;30969;51.052;17.056;2023-04-03T03:38:22;2.70;72.10
45233;DHT22;30969;51.052;17.056;2023-04-03T03:43:27;2.60;72.50
45233;DHT22;30969;51.052;17.056;2023-04-03T03:48:30;2.50;72.90
45233;DHT22;30969;51.052;17.056;2023-04-03T03:53:34;2.50;73.20
45233;DHT22;30969;51.052;17.056;2023-04-03T03:58:39;2.40;73.70
45233;DHT22;30969;51.052;17.056;2023-04-03T04:03:42;2.30;74.20
45233;DHT22;30969;51.052;17.056;2023-04-03T04:08:46;2.10;74.80
45233;DHT22;30969;51.052;17.056;2023-04-03T04:13:51;2.10;74.90
45233;DHT22;30969;51.052;17.056;2023-04-03T04:18:54;2.10;75.30
45233;DHT22;30969;51.052;17.056;2023-04-03T04:23:58;2.10;75.10
45233;DHT22;30969;51.052;17.056;2023-04-03T04:29:03;2.10;75.10
45233;DHT22;30969;51.052;17.056;2023-04-03T04:34:06;2.10;75.30
45233;DHT22;30969;51.052;17.056;2023-04-03T04:39:10;2.00;75.70
45233;DHT22;30969;51.052;17.056;2023-04-03T04:44:15;2.00;75.80
45233;DHT22;30969;51.052;17.056;2023-04-03T04:49:18;2.00;75.90
45233;DHT22;30969;51.052;17.056;2023-04-03T04:54:22;2.00;76.20
45233;DHT22;30969;51.052;17.056;2023-04-03T04:59:27;1.90;76.50
45233;DHT22;30969;51.052;17.056;2023-04-03T05:04:30;1.90;76.60
45233;DHT22;30969;51.052;17.056;2023-04-03T05:09:35;1.90;77.00
45233;DHT22;30969;51.052;17.056;2023-04-03T05:14:40;1.90;77.30
45233;DHT22;30969;51.052;17.056;2023-04-03T05:19:43;2.00;77.10
45233;DHT22;30969;51.052;17.056;2023-04-03T05:24:47;2.00;77.10
45233;DHT22;30969;51.052;17.056;2023-04-03T05:29:52;2.10;77.10
45233;DHT22;30969;51.052;17.056;2023-04-03T05:40:27;2.30;76.10
45233;DHT22;30969;51.052;17.056;2023-04-03T05:45:32;2.30;76.00
45233;DHT22;30969;51.052;17.056;2023-04-03T05:50:35;2.30;76.00
45233;DHT22;30969;51.052;17.056;2023-04-03T05:55:44;2.20;75.90
45233;DHT22;30969;51.052;17.056;2023-04-03T06:00:49;2.30;76.20
45233;DHT22;30969;51.052;17.056;2023-04-03T06:05:53;2.30;76.20
45233;DHT22;30969;51.052;17.056;2023-04-03T06:10:56;2.40;76.20
45233;DHT22;30969;51.052;17.056;2023-04-03T06:16:01;2.40;76.00
45233;DHT22;30969;51.052;17.056;2023-04-03T06:21:06;2.50;75.70
45233;DHT22;30969;51.052;17.056;2023-04-03T06:26:09;2.50;75.30
45233;DHT22;30969;51.052;17.056;2023-04-03T06:31:14;2.70;74.60
45233;DHT22;30969;51.052;17.056;2023-04-03T06:36:19;2.70;74.40
45233;DHT22;30969;51.052;17.056;2023-04-03T06:41:24;2.80;74.30
45233;DHT22;30969;51.052;17.056;2023-04-03T06:46:30;2.90;73.10
45233;DHT22;30969;51.052;17.056;2023-04-03T06:51:34;2.80;73.00
45233;DHT22;30969;51.052;17.056;2023-04-03T06:56:38;2.80;72.80
45233;DHT22;30969;51.052;17.056;2023-04-03T07:01:43;2.80;73.10
45233;DHT22;30969;51.052;17.056;2023-04-03T07:06:47;2.90;73.20
45233;DHT22;30969;51.052;17.056;2023-04-03T07:11:50;3.10;73.20
45233;DHT22;30969;51.052;17.056;2023-04-03T07:16:55;3.30;72.70
45233;DHT22;30969;51.052;17.056;2023-04-03T07:21:58;3.30;70.90
45233;DHT22;30969;51.052;17.056;2023-04-03T07:27:02;3.30;70.70
45233;DHT22;30969;51.052;17.056;2023-04-03T07:32:07;3.30;70.40
45233;DHT22;30969;51.052;17.056;2023-04-03T07:37:10;3.20;70.20
45233;DHT22;30969;51.052;17.056;2023-04-03T07:42:14;3.10;69.80
45233;DHT22;30969;51.052;17.056;2023-04-03T07:47:20;3.20;70.30
45233;DHT22;30969;51.052;17.056;2023-04-03T07:52:24;3.30;69.50
45233;DHT22;30969;51.052;17.056;2023-04-03T07:57:28;3.30;70.00
45233;DHT22;30969;51.052;17.056;2023-04-03T08:02:33;3.40;69.40
45233;DHT22;30969;51.052;17.056;2023-04-03T08:07:36;3.50;69.20
45233;DHT22;30969;51.052;17.056;2023-04-03T08:12:40;3.60;68.80
45233;DHT22;30969;51.052;17.056;2023-04-03T08:17:45;3.80;69.50
45233;DHT22;30969;51.052;17.056;2023-04-03T08:22:48;3.90;66.10
45233;DHT22;30969;51.052;17.056;2023-04-03T08:27:52;4.00;66.20
45233;DHT22;30969;51.052;17.056;2023-04-03T08:32:56;4.00;65.30
45233;DHT22;30969;51.052;17.056;2023-04-03T08:38:00;4.00;64.60
45233;DHT22;30969;51.052;17.056;2023-04-03T08:43:14;4.10;64.00
45233;DHT22;30969;51.052;17.056;2023-04-03T08:48:28;4.30;62.40
45233;DHT22;30969;51.052;17.056;2023-04-03T08:53:35;4.40;61.70
45233;DHT22;30969;51.052;17.056;2023-04-03T08:58:46;4.50;61.30
45233;DHT22;30969;51.052;17.056;2023-04-03T09:03:53;4.60;58.40
45233;DHT22;30969;51.052;17.056;2023-04-03T09:09:06;4.70;58.50
45233;DHT22;30969;51.052;17.056;2023-04-03T09:14:17;4.90;59.00
45233;DHT22;30969;51.052;17.056;2023-04-03T09:19:34;5.00;59.00
45233;DHT22;30969;51.052;17.056;2023-04-03T09:24:39;5.00;58.00
45233;DHT22;30969;51.052;17.056;2023-04-03T09:29:44;5.10;56.10
45233;DHT22;30969;51.052;17.056;2023-04-03T09:34:52;5.20;55.40
45233;DHT22;30969;51.052;17.056;2023-04-03T09:39:57;5.20;54.30
45233;DHT22;30969;51.052;17.056;2023-04-03T09:45:03;5.30;55.50
45233;DHT22;30969;51.052;17.056;2023-04-03T09:50:21;5.30;53.90
45233;DHT22;30969;51.052;17.056;2023-04-03T09:55:26;5.40;53.10
45233;DHT22;30969;51.052;17.056;2023-04-03T10:00:35;5.50;54.20
45233;DHT22;30969;51.052;17.056;2023-04-03T10:05:41;5.70;52.50
45233;DHT22;30969;51.052;17.056;2023-04-03T10:10:47;5.70;51.60
45233;DHT22;30969;51.052;17.056;2023-04-03T10:15:55;5.70;50.60
45233;DHT22;30969;51.052;17.056;2023-04-03T10:21:05;5.60;51.40
45233;DHT22;30969;51.052;17.056;2023-04-03T10:26:32;5.60;51.10
45233;DHT22;30969;51.052;17.056;2023-04-03T10:31:44;5.50;50.50
45233;DHT22;30969;51.052;17.056;2023-04-03T10:36:53;5.50;49.40
45233;DHT22;30969;51.052;17.056;2023-04-03T10:42:03;5.50;50.10
45233;DHT22;30969;51.052;17.056;2023-04-03T10:47:21;5.50;49.60
45233;DHT22;30969;51.052;17.056;2023-04-03T10:52:33;5.60;49.70
45233;DHT22;30969;51.052;17.056;2023-04-03T10:57:42;5.70;48.90
45233;DHT22;30969;51.052;17.056;2023-04-03T11:02:51;5.70;49.10
45233;DHT22;30969;51.052;17.056;2023-04-03T11:07:59;5.80;48.90
45233;DHT22;30969;51.052;17.056;2023-04-03T11:13:10;5.80;49.10
45233;DHT22;30969;51.052;17.056;2023-04-03T11:18:18;5.80;49.40
45233;DHT22;30969;51.052;17.056;2023-04-03T11:23:25;5.80;49.30
45233;DHT22;30969;51.052;17.056;2023-04-03T11:28:40;6.00;49.20
45233;DHT22;30969;51.052;17.056;2023-04-03T11:33:51;6.10;48.50
45233;DHT22;30969;51.052;17.056;2023-04-03T11:39:00;6.30;48.10
45233;DHT22;30969;51.052;17.056;2023-04-03T11:44:06;6.40;47.40
45233;DHT22;30969;51.052;17.056;2023-04-03T11:49:52;6.50;47.60
45233;DHT22;30969;51.052;17.056;2023-04-03T11:54:57;6.50;46.20
45233;DHT22;30969;51.052;17.056;2023-04-03T12:05:28;6.40;46.20
45233;DHT22;30969;51.052;17.056;2023-04-03T12:10:34;6.40;45.30
45233;DHT22;30969;51.052;17.056;2023-04-03T12:15:50;6.50;45.30
45233;DHT22;30969;51.052;17.056;2023-04-03T12:20:58;6.60;45.40
45233;DHT22;30969;51.052;17.056;2023-04-03T12:26:18;6.80;42.00
45233;DHT22;30969;51.052;17.056;2023-04-03T12:31:25;7.00;42.90
45233;DHT22;30969;51.052;17.056;2023-04-03T12:36:46;7.10;43.30
45233;DHT22;30969;51.052;17.056;2023-04-03T12:42:00;7.00;42.30
45233;DHT22;30969;51.052;17.056;2023-04-03T12:47:27;6.90;41.20
45233;DHT22;30969;51.052;17.056;2023-04-03T12:52:39;7.10;42.70
45233;DHT22;30969;51.052;17.056;2023-04-03T12:57:46;7.30;42.00
45233;DHT22;30969;51.052;17.056;2023-04-03T13:02:50;7.30;41.80
45233;DHT22;30969;51.052;17.056;2023-04-03T13:07:57;7.30;42.80
45233;DHT22;30969;51.052;17.056;2023-04-03T13:13:09;7.50;42.50
45233;DHT22;30969;51.052;17.056;2023-04-03T13:18:24;7.80;41.70
45233;DHT22;30969;51.052;17.056;2023-04-03T13:23:28;7.80;41.70
45233;DHT22;30969;51.052;17.056;2023-04-03T13:28:35;7.70;41.60
45233;DHT22;30969;51.052;17.056;2023-04-03T13:33:51;7.70;41.90
45233;DHT22;30969;51.052;17.056;2023-04-03T13:39:02;8.00;41.90
45233;DHT22;30969;51.052;17.056;2023-04-03T13:44:23;8.20;40.90
45233;DHT22;30969;51.052;17.056;2023-04-03T13:49:32;8.20;41.00
45233;DHT22;30969;51.052;17.056;2023-04-03T13:54:37;8.30;40.30
45233;DHT22;30969;51.052;17.056;2023-04-03T13:59:43;8.20;39.20
45233;DHT22;30969;51.052;17.056;2023-04-03T14:04:54;8.10;39.50
45233;DHT22;30969;51.052;17.056;2023-04-03T14:10:05;7.90;40.30
45233;DHT22;30969;51.052;17.056;2023-04-03T14:15:18;7.70;39.80
45233;DHT22;30969;51.052;17.056;2023-04-03T14:20:24;7.70;40.70
45233;DHT22;30969;51.052;17.056;2023-04-03T14:25:28;7.90;40.90
45233;DHT22;30969;51.052;17.056;2023-04-03T14:30:33;8.10;39.50
45233;DHT22;30969;51.052;17.056;2023-04-03T14:35:37;8.20;37.70
45233;DHT22;30969;51.052;17.056;2023-04-03T14:40:41;8.10;37.80
45233;DHT22;30969;51.052;17.056;2023-04-03T14:45:46;7.90;37.60
45233;DHT22;30969;51.052;17.056;2023-04-03T14:50:51;8.10;40.20
45233;DHT22;30969;51.052;17.056;2023-04-03T14:56:12;8.50;38.00
45233;DHT22;30969;51.052;17.056;2023-04-03T15:01:18;8.80;38.00
45233;DHT22;30969;51.052;17.056;2023-04-03T15:06:22;8.60;36.70
45233;DHT22;30969;51.052;17.056;2023-04-03T15:11:25;8.50;37.40
45233;DHT22;30969;51.052;17.056;2023-04-03T15:16:30;8.40;38.00
45233;DHT22;30969;51.052;17.056;2023-04-03T15:21:35;8.20;36.00
45233;DHT22;30969;51.052;17.056;2023-04-03T15:26:38;8.00;37.60
45233;DHT22;30969;51.052;17.056;2023-04-03T15:31:43;7.90;37.50
45233;DHT22;30969;51.052;17.056;2023-04-03T15:36:47;8.00;37.90
45233;DHT22;30969;51.052;17.056;2023-04-03T15:41:51;7.90;38.10
45233;DHT22;30969;51.052;17.056;2023-04-03T15:46:58;7.80;38.50
45233;DHT22;30969;51.052;17.056;2023-04-03T15:52:03;7.80;38.70
45233;DHT22;30969;51.052;17.056;2023-04-03T15:57:08;7.70;38.50
45233;DHT22;30969;51.052;17.056;2023-04-03T16:02:13;7.70;39.00
45233;DHT22;30969;51.052;17.056;2023-04-03T16:07:17;7.50;39.40
45233;DHT22;30969;51.052;17.056;2023-04-03T16:12:21;7.50;39.90
45233;DHT22;30969;51.052;17.056;2023-04-03T16:17:27;7.20;40.60
45233;DHT22;30969;51.052;17.056;2023-04-03T16:22:31;7.20;41.50
45233;DHT22;30969;51.052;17.056;2023-04-03T16:27:35;7.20;41.90
45233;DHT22;30969;51.052;17.056;2023-04-03T16:32:41;7.20;41.70
45233;DHT22;30969;51.052;17.056;2023-04-03T16:37:45;7.10;41.80
45233;DHT22;30969;51.052;17.056;2023-04-03T16:42:48;7.00;41.60
45233;DHT22;30969;51.052;17.056;2023-04-03T16:47:53;6.80;41.30
45233;DHT22;30969;51.052;17.056;2023-04-03T16:52:57;6.60;40.90
45233;DHT22;30969;51.052;17.056;2023-04-03T16:58:00;6.40;41.90
45233;DHT22;30969;51.052;17.056;2023-04-03T17:03:05;6.30;42.20
45233;DHT22;30969;51.052;17.056;2023-04-03T17:08:09;6.40;42.40
45233;DHT22;30969;51.052;17.056;2023-04-03T17:13:13;6.30;42.30
45233;DHT22;30969;51.052;17.056;2023-04-03T17:18:18;6.20;43.10
45233;DHT22;30969;51.052;17.056;2023-04-03T17:23:23;6.10;43.50
45233;DHT22;30969;51.052;17.056;2023-04-03T17:28:26;6.20;43.30
45233;DHT22;30969;51.052;17.056;2023-04-03T17:33:31;6.20;43.20
45233;DHT22;30969;51.052;17.056;2023-04-03T17:38:35;6.20;43.30
45233;DHT22;30969;51.052;17.056;2023-04-03T17:43:39;6.20;43.10
45233;DHT22;30969;51.052;17.056;2023-04-03T17:48:45;6.20;43.30
45233;DHT22;30969;51.052;17.056;2023-04-03T17:53:49;6.10;43.30
45233;DHT22;30969;51.052;17.056;2023-04-03T17:58:54;6.10;43.70
45233;DHT22;30969;51.052;17.056;2023-04-03T18:04:02;6.20;43.70
45233;DHT22;30969;51.052;17.056;2023-04-03T18:09:09;6.20;43.90
45233;DHT22;30969;51.052;17.056;2023-04-03T18:14:16;6.30;43.70
45233;DHT22;30969;51.052;17.056;2023-04-03T18:19:22;6.20;43.90
45233;DHT22;30969;51.052;17.056;2023-04-03T18:24:26;6.20;44.20
45233;DHT22;30969;51.052;17.056;2023-04-03T18:29:31;6.20;44.20
45233;DHT22;30969;51.052;17.056;2023-04-03T18:34:37;6.10;44.40
45233;DHT22;30969;51.052;17.056;2023-04-03T18:39:41;6.10;44.70
45233;DHT22;30969;51.052;17.056;2023-04-03T18:44:48;6.10;45.00
45233;DHT22;30969;51.052;17.056;2023-04-03T18:49:54;6.10;44.70
45233;DHT22;30969;51.052;17.056;2023-04-03T18:54:57;6.10;44.80
45233;DHT22;30969;51.052;17.056;2023-04-03T19:00:01;6.10;44.60
45233;DHT22;30969;51.052;17.056;2023-04-03T19:05:08;6.10;44.80
45233;DHT22;30969;51.052;17.056;2023-04-03T19:10:14;6.10;45.00
45233;DHT22;30969;51.052;17.056;2023-04-03T19:15:23;6.10;45.10
45233;DHT22;30969;51.052;17.056;2023-04-03T19:20:28;6.00;45.20
45233;DHT22;30969;51.052;17.056;2023-04-03T19:25:33;6.00;45.40
45233;DHT22;30969;51.052;17.056;2023-04-03T19:30:37;6.00;45.70
45233;DHT22;30969;51.052;17.056;2023-04-03T19:35:42;6.00;45.70
45233;DHT22;30969;51.052;17.056;2023-04-03T19:40:47;5.90;45.60
45233;DHT22;30969;51.052;17.056;2023-04-03T19:45:51;5.90;46.00
45233;DHT22;30969;51.052;17.056;2023-04-03T19:50:57;5.90;46.00
45233;DHT22;30969;51.052;17.056;2023-04-03T19:56:00;6.00;46.00
45233;DHT22;30969;51.052;17.056;2023-04-03T20:01:04;6.00;46.00
45233;DHT22;30969;51.052;17.056;2023-04-03T20:06:11;6.00;46.00
45233;DHT22;30969;51.052;17.056;2023-04-03T20:11:18;6.00;46.20
45233;DHT22;30969;51.052;17.056;2023-04-03T20:16:23;5.80;46.10
45233;DHT22;30969;51.052;17.056;2023-04-03T20:21:30;5.70;46.40
45233;DHT22;30969;51.052;17.056;2023-04-03T20:26:34;5.80;46.70
45233;DHT22;30969;51.052;17.056;2023-04-03T20:31:44;5.70;46.90
45233;DHT22;30969;51.052;17.056;2023-04-03T20:36:49;5.70;47.00
45233;DHT22;30969;51.052;17.056;2023-04-03T20:41:53;5.70;47.20
45233;DHT22;30969;51.052;17.056;2023-04-03T20:47:07;5.60;47.50
45233;DHT22;30969;51.052;17.056;2023-04-03T20:52:12;5.60;48.10
45233;DHT22;30969;51.052;17.056;2023-04-03T20:57:15;5.60;48.40
45233;DHT22;30969;51.052;17.056;2023-04-03T21:02:19;5.60;48.30
45233;DHT22;30969;51.052;17.056;2023-04-03T21:19:06;5.50;48.20
45233;DHT22;30969;51.052;17.056;2023-04-03T21:24:12;5.30;47.60
45233;DHT22;30969;51.052;17.056;2023-04-03T21:29:16;5.20;47.60
45233;DHT22;30969;51.052;17.056;2023-04-03T21:34:21;5.10;47.30
45233;DHT22;30969;51.052;17.056;2023-04-03T21:39:27;5.10;47.40
45233;DHT22;30969;51.052;17.056;2023-04-03T21:44:30;5.00;48.40
45233;DHT22;30969;51.052;17.056;2023-04-03T21:49:35;4.90;47.50
45233;DHT22;30969;51.052;17.056;2023-04-03T21:54:38;4.90;47.60
45233;DHT22;30969;51.052;17.056;2023-04-03T21:59:42;4.90;47.60
45233;DHT22;30969;51.052;17.056;2023-04-03T22:04:49;4.90;47.60
45233;DHT22;30969;51.052;17.056;2023-04-03T22:09:52;4.80;47.60
45233;DHT22;30969;51.052;17.056;2023-04-03T22:14:56;4.80;47.90
45233;DHT22;30969;51.052;17.056;2023-04-03T22:20:01;4.80;48.00
45233;DHT22;30969;51.052;17.056;2023-04-03T22:25:06;4.80;48.20
45233;DHT22;30969;51.052;17.056;2023-04-03T22:30:11;4.70;48.40
45233;DHT22;30969;51.052;17.056;2023-04-03T22:35:16;4.60;48.80
45233;DHT22;30969;51.052;17.056;2023-04-03T22:40:20;4.50;49.20
45233;DHT22;30969;51.052;17.056;2023-04-03T22:45:23;4.40;49.20
45233;DHT22;30969;51.052;17.056;2023-04-03T22:50:29;4.40;49.70
45233;DHT22;30969;51.052;17.056;2023-04-03T22:55:35;4.30;49.80
45233;DHT22;30969;51.052;17.056;2023-04-03T23:00:39;4.20;50.00
45233;DHT22;30969;51.052;17.056;2023-04-03T23:05:44;4.20;50.20
45233;DHT22;30969;51.052;17.056;2023-04-03T23:10:48;4.10;51.40
45233;DHT22;30969;51.052;17.056;2023-04-03T23:15:52;4.00;50.60
45233;DHT22;30969;51.052;17.056;2023-04-03T23:20:57;4.00;50.80
45233;DHT22;30969;51.052;17.056;2023-04-03T23:26:01;3.90;51.00
45233;DHT22;30969;51.052;17.056;2023-04-03T23:31:05;3.90;51.30
45233;DHT22;30969;51.052;17.056;2023-04-03T23:36:11;3.70;51.40
45233;DHT22;30969;51.052;17.056;2023-04-03T23:41:17;3.70;51.70
45233;DHT22;30969;51.052;17.056;2023-04-03T23:46:20;3.70;51.80
45233;DHT22;30969;51.052;17.056;2023-04-03T23:51:25;3.60;52.30
45233;DHT22;30969;51.052;17.056;2023-04-03T23:56:29;3.50;52.40
